| time (UTC) | temp F | wind direction | speed MPH | gust MPH | rain 1hr in | rain 24hr in | rain mn in | humidity % | barometer mb |
| 20260510175126 | 69 | 43 | 1.0 | 5.0 | 0.00 | 0.00 | 0.00 | 24 | 1029.7 |
| 20260510174140 | 69 | 21 | 2.0 | 8.0 | 0.00 | 0.00 | 0.00 | 23 | 1029.5 |
| 20260510173155 | 69 | 43 | 2.0 | 7.0 | 0.00 | 0.00 | 0.00 | 24 | 1029.6 |
| 20260510172211 | 70 | 86 | 1.0 | 5.0 | 0.00 | 0.00 | 0.00 | 25 | 1029.5 |
| 20260510171122 | 70 | 79 | 1.0 | 5.0 | 0.00 | 0.00 | 0.00 | 26 | 1029.4 |
| 20260510170138 | 71 | 8 | 4.0 | 13.0 | 0.00 | 0.00 | 0.00 | 28 | 1029.4 |
| 20260510165151 | 69 | 103 | 3.0 | 7.0 | 0.00 | 0.00 | 0.00 | 28 | 1029.2 |
| 20260510164229 | 67 | 129 | 2.0 | 5.0 | 0.00 | 0.00 | 0.00 | 29 | 1029.3 |
| 20260510163119 | 68 | 166 | 3.0 | 6.0 | 0.00 | 0.00 | 0.00 | 28 | 1029.2 |
| 20260510162152 | 68 | 51 | 3.0 | 6.0 | 0.00 | 0.00 | 0.00 | 28 | 1029.1 |
| 20260510161150 | 69 | 108 | 2.0 | 8.0 | 0.00 | 0.00 | 0.00 | 27 | 1028.9 |
| 20260510160203 | 68 | 127 | 4.0 | 14.0 | 0.00 | 0.00 | 0.00 | 27 | 1028.7 |
| 20260510155217 | 70 | 154 | 5.0 | 13.0 | 0.00 | 0.00 | 0.00 | 27 | 1028.8 |
| 20260510154128 | 69 | 71 | 4.0 | 11.0 | 0.00 | 0.00 | 0.00 | 26 | 1028.9 |
| 20260510153205 | 68 | 134 | 4.0 | 11.0 | 0.00 | 0.00 | 0.00 | 27 | 1028.8 |
| 20260510152159 | 69 | 128 | 3.0 | 9.0 | 0.00 | 0.00 | 0.00 | 26 | 1028.7 |
| 20260510151235 | 69 | 110 | 3.0 | 8.0 | 0.00 | 0.00 | 0.00 | 26 | 1028.5 |
| 20260510150126 | 69 | 116 | 5.0 | 11.0 | 0.00 | 0.00 | 0.00 | 25 | 1028.5 |
| 20260510145202 | 68 | 115 | 4.0 | 11.0 | 0.00 | 0.00 | 0.00 | 26 | 1028.1 |
| 20260510144157 | 67 | 124 | 3.0 | 13.0 | 0.00 | 0.00 | 0.00 | 26 | 1028.1 |
| 20260510143231 | 68 | 113 | 4.0 | 13.0 | 0.00 | 0.00 | 0.00 | 24 | 1027.8 |
| 20260510142145 | 67 | 109 | 1.0 | 7.0 | 0.00 | 0.00 | 0.00 | 24 | 1027.8 |
| 20260510141138 | 65 | 134 | 3.0 | 7.0 | 0.00 | 0.00 | 0.00 | 26 | 1027.9 |
| 20260510140153 | 64 | 98 | 3.0 | 7.0 | 0.00 | 0.00 | 0.00 | 26 | 1027.9 |
| 20260510135209 | 61 | 98 | 4.0 | 10.0 | 0.00 | 0.00 | 0.00 | 28 | 1027.8 |
| 20260510134140 | 57 | 133 | 2.0 | 7.0 | 0.00 | 0.00 | 0.00 | 33 | 1028.0 |
| 20260510133135 | 57 | 160 | 3.0 | 6.0 | 0.00 | 0.00 | 0.00 | 33 | 1028.0 |
| 20260510132151 | 54 | 87 | 2.0 | 7.0 | 0.00 | 0.00 | 0.00 | 36 | 1027.7 |
| 20260510131207 | 53 | 122 | 4.0 | 8.0 | 0.00 | 0.00 | 0.00 | 35 | 1027.3 |
| 20260510130221 | 54 | 120 | 2.0 | 5.0 | 0.00 | 0.00 | 0.00 | 34 | 1027.2 |
| 20260510125153 | 55 | 98 | 1.0 | 3.0 | 0.00 | 0.00 | 0.00 | 33 | 1027.1 |
| 20260510124148 | 55 | 147 | 3.0 | 7.0 | 0.00 | 0.00 | 0.00 | 33 | 1026.6 |
| 20260510123204 | 55 | 114 | 1.0 | 3.0 | 0.00 | 0.00 | 0.00 | 32 | 1026.7 |
| 20260510122219 | 55 | 146 | 2.0 | 7.0 | 0.00 | 0.00 | 0.00 | 31 | 1026.8 |
| 20260510121131 | 56 | 142 | 4.0 | 8.0 | 0.00 | 0.00 | 0.00 | 30 | 1026.3 |
| 20260510120146 | 56 | 117 | 2.0 | 5.0 | 0.00 | 0.00 | 0.00 | 31 | 1026.2 |
| 20260510115221 | 55 | 118 | 2.0 | 6.0 | 0.00 | 0.00 | 0.00 | 32 | 1026.2 |
| 20260510114217 | 54 | 120 | 3.0 | 8.0 | 0.00 | 0.00 | 0.00 | 33 | 1026.2 |
| 20260510113128 | 53 | 126 | 2.0 | 6.0 | 0.00 | 0.00 | 0.00 | 36 | 1026.2 |
| 20260510112143 | 53 | 141 | 4.0 | 7.0 | 0.00 | 0.00 | 0.00 | 35 | 1026.1 |
| 20260510111158 | 51 | 121 | 2.0 | 6.0 | 0.00 | 0.00 | 0.00 | 37 | 1026.1 |
| 20260510110214 | 51 | 106 | 2.0 | 7.0 | 0.00 | 0.00 | 0.00 | 38 | 1026.0 |
| 20260510105125 | 52 | 106 | 5.0 | 8.0 | 0.00 | 0.00 | 0.00 | 37 | 1026.0 |
| 20260510104141 | 51 | 88 | 2.0 | 5.0 | 0.00 | 0.00 | 0.00 | 38 | 1025.8 |
| 20260510103216 | 52 | 127 | 4.0 | 9.0 | 0.00 | 0.00 | 0.00 | 38 | 1025.8 |
| 20260510102211 | 53 | 143 | 4.0 | 9.0 | 0.00 | 0.00 | 0.00 | 37 | 1025.8 |
| 20260510101226 | 53 | 127 | 3.0 | 7.0 | 0.00 | 0.00 | 0.00 | 37 | 1025.6 |
| 20260510100138 | 53 | 116 | 4.0 | 8.0 | 0.00 | 0.00 | 0.00 | 37 | 1025.6 |
| 20260510095153 | 53 | 147 | 4.0 | 7.0 | 0.00 | 0.00 | 0.00 | 37 | 1025.5 |
| 20260510094208 | 52 | 138 | 3.0 | 6.0 | 0.00 | 0.00 | 0.00 | 38 | 1025.5 |
| 20260510093223 | 52 | 124 | 2.0 | 5.0 | 0.00 | 0.00 | 0.00 | 37 | 1025.3 |
| 20260510092154 | 53 | 130 | 3.0 | 7.0 | 0.00 | 0.00 | 0.00 | 35 | 1025.2 |
| 20260510091210 | 54 | 124 | 2.0 | 6.0 | 0.00 | 0.00 | 0.00 | 35 | 1025.3 |
| 20260510090204 | 54 | 137 | 2.0 | 3.0 | 0.00 | 0.00 | 0.00 | 34 | 1024.9 |
| 20260510085220 | 55 | 117 | 2.0 | 8.0 | 0.00 | 0.00 | 0.00 | 33 | 1024.9 |
| 20260510084131 | 55 | 145 | 3.0 | 7.0 | 0.00 | 0.00 | 0.00 | 32 | 1024.6 |
| 20260510083147 | 57 | 123 | 1.0 | 6.0 | 0.00 | 0.00 | 0.00 | 31 | 1024.5 |
| 20260510082202 | 57 | 122 | 3.0 | 8.0 | 0.00 | 0.00 | 0.00 | 30 | 1024.5 |
| 20260510081218 | 58 | 139 | 3.0 | 6.0 | 0.00 | 0.00 | 0.00 | 29 | 1024.5 |
| 20260510080233 | 58 | 139 | 2.0 | 6.0 | 0.00 | 0.00 | 0.00 | 28 | 1024.4 |
| 20260510075144 | 57 | 145 | 4.0 | 8.0 | 0.00 | 0.00 | 0.00 | 28 | 1024.5 |
| 20260510074159 | 57 | 126 | 5.0 | 8.0 | 0.00 | 0.00 | 0.00 | 29 | 1024.6 |
| 20260510073215 | 59 | 134 | 2.0 | 5.0 | 0.00 | 0.00 | 0.00 | 27 | 1024.9 |
| 20260510072230 | 58 | 141 | 4.0 | 6.0 | 0.00 | 0.00 | 0.00 | 26 | 1024.9 |
| 20260510071142 | 58 | 127 | 4.0 | 8.0 | 0.00 | 0.00 | 0.00 | 27 | 1025.1 |
| 20260510070217 | 58 | 113 | 2.0 | 7.0 | 0.00 | 0.00 | 0.00 | 27 | 1025.2 |
| 20260510065212 | 56 | 147 | 4.0 | 7.0 | 0.00 | 0.00 | 0.00 | 29 | 1025.2 |
| 20260510064249 | 56 | 130 | 4.0 | 8.0 | 0.00 | 0.00 | 0.00 | 30 | 1025.0 |
| 20260510063159 | 55 | 97 | 1.0 | 3.0 | 0.00 | 0.00 | 0.00 | 31 | 1025.1 |
| 20260510062154 | 54 | 137 | 2.0 | 5.0 | 0.00 | 0.00 | 0.00 | 33 | 1025.0 |
| 20260510061210 | 57 | 120 | 1.0 | 2.0 | 0.00 | 0.00 | 0.00 | 30 | 1024.9 |
| 20260510060224 | 58 | 120 | 2.0 | 5.0 | 0.00 | 0.00 | 0.00 | 29 | 1024.9 |
| 20260510055240 | 59 | 98 | 1.0 | 5.0 | 0.00 | 0.00 | 0.00 | 28 | 1024.9 |
| 20260510054151 | 59 | 134 | 3.0 | 6.0 | 0.00 | 0.00 | 0.00 | 27 | 1024.9 |
| 20260510053227 | 60 | 135 | 2.0 | 6.0 | 0.00 | 0.00 | 0.00 | 27 | 1024.8 |
| 20260510052222 | 62 | 148 | 3.0 | 6.0 | 0.00 | 0.00 | 0.00 | 26 | 1024.9 |
| 20260510051257 | 62 | 141 | 5.0 | 8.0 | 0.00 | 0.00 | 0.00 | 25 | 1024.7 |
| 20260510050210 | 61 | 163 | 4.0 | 8.0 | 0.00 | 0.00 | 0.00 | 25 | 1024.9 |
| 20260510045204 | 62 | 152 | 4.0 | 8.0 | 0.00 | 0.00 | 0.00 | 25 | 1025.0 |
| 20260510044240 | 62 | 171 | 6.0 | 9.0 | 0.00 | 0.00 | 0.00 | 24 | 1025.1 |
| 20260510043237 | 60 | 140 | 4.0 | 7.0 | 0.00 | 0.00 | 0.00 | 27 | 1025.1 |
| 20260510042147 | 60 | 141 | 4.0 | 10.0 | 0.00 | 0.00 | 0.00 | 27 | 1025.2 |
| 20260510041222 | 59 | 134 | 2.0 | 6.0 | 0.00 | 0.00 | 0.00 | 28 | 1025.0 |
| 20260510040237 | 59 | 129 | 3.0 | 7.0 | 0.00 | 0.00 | 0.00 | 27 | 1025.2 |
| 20260510035233 | 60 | 162 | 4.0 | 8.0 | 0.00 | 0.00 | 0.00 | 27 | 1024.9 |
| 20260510034144 | 59 | 150 | 3.0 | 7.0 | 0.00 | 0.00 | 0.00 | 28 | 1025.0 |
| 20260510033200 | 59 | 141 | 3.0 | 8.0 | 0.00 | 0.00 | 0.00 | 28 | 1024.9 |
| 20260510032215 | 61 | 129 | 4.0 | 7.0 | 0.00 | 0.00 | 0.00 | 27 | 1024.8 |
| 20260510031231 | 61 | 133 | 3.0 | 8.0 | 0.00 | 0.00 | 0.00 | 26 | 1024.6 |
| 20260510030305 | 60 | 142 | 4.0 | 9.0 | 0.00 | 0.00 | 0.00 | 27 | 1024.8 |
| 20260510025219 | 60 | 136 | 2.0 | 5.0 | 0.00 | 0.00 | 0.00 | 28 | 1024.6 |
| 20260510024212 | 60 | 131 | 2.0 | 6.0 | 0.00 | 0.00 | 0.00 | 27 | 1024.5 |
| 20260510023249 | 60 | 115 | 2.0 | 7.0 | 0.00 | 0.00 | 0.00 | 28 | 1024.3 |
| 20260510022242 | 61 | 133 | 3.0 | 5.0 | 0.00 | 0.00 | 0.00 | 27 | 1024.3 |
| 20260510021213 | 61 | 106 | 2.0 | 6.0 | 0.00 | 0.00 | 0.00 | 28 | 1024.1 |
| 20260510020207 | 62 | 140 | 2.0 | 8.0 | 0.00 | 0.00 | 0.00 | 27 | 1024.1 |
| 20260510015244 | 64 | 165 | 3.0 | 7.0 | 0.00 | 0.00 | 0.00 | 26 | 1024.0 |
| 20260510014238 | 65 | 126 | 2.0 | 5.0 | 0.00 | 0.00 | 0.00 | 25 | 1023.8 |
| 20260510013151 | 70 | 132 | 1.0 | 2.0 | 0.00 | 0.00 | 0.00 | 21 | 1023.7 |
| 20260510012226 | 70 | 92 | 0.0 | 1.0 | 0.00 | 0.00 | 0.00 | 21 | 1023.6 |
| 20260510011220 | 74 | 108 | 0.0 | 5.0 | 0.00 | 0.00 | 0.00 | 17 | 1023.6 |
| 20260510010235 | 75 | 318 | 2.0 | 5.0 | 0.00 | 0.00 | 0.00 | 17 | 1023.6 |
| 20260510005252 | 75 | 4 | 2.0 | 6.0 | 0.00 | 0.00 | 0.00 | 16 | 1023.8 |
| 20260510004201 | 76 | 200 | 2.0 | 9.0 | 0.00 | 0.00 | 0.00 | 16 | 1023.7 |
| 20260510003217 | 76 | 316 | 3.0 | 6.0 | 0.00 | 0.00 | 0.00 | 16 | 1023.8 |
| 20260510002234 | 76 | 292 | 3.0 | 7.0 | 0.00 | 0.00 | 0.00 | 15 | 1023.7 |
| 20260510001248 | 76 | 242 | 4.0 | 10.0 | 0.00 | 0.00 | 0.00 | 16 | 1023.8 |
| 20260510000201 | 76 | 152 | 3.0 | 10.0 | 0.00 | 0.00 | 0.00 | 16 | 1023.8 |
| 20260509235216 | 76 | 201 | 5.0 | 10.0 | 0.00 | 0.00 | 0.00 | 15 | 1023.9 |
| 20260509234230 | 78 | 323 | 3.0 | 10.0 | 0.00 | 0.00 | 0.00 | 16 | 1023.9 |
| 20260509233246 | 77 | 316 | 3.0 | 8.0 | 0.00 | 0.00 | 0.00 | 16 | 1023.8 |
| 20260509232158 | 76 | 321 | 4.0 | 13.0 | 0.00 | 0.00 | 0.00 | 18 | 1024.2 |
| 20260509231212 | 77 | 247 | 6.0 | 14.0 | 0.00 | 0.00 | 0.00 | 15 | 1024.2 |
| 20260509230229 | 78 | 339 | 2.0 | 13.0 | 0.00 | 0.00 | 0.00 | 16 | 1024.1 |
| 20260509225243 | 76 | 309 | 5.0 | 13.0 | 0.00 | 0.00 | 0.00 | 17 | 1024.2 |
| 20260509224258 | 77 | 234 | 5.0 | 10.0 | 0.00 | 0.00 | 0.00 | 15 | 1024.4 |
| 20260509223211 | 77 | 250 | 5.0 | 10.0 | 0.00 | 0.00 | 0.00 | 16 | 1024.5 |
| 20260509222225 | 77 | 341 | 4.0 | 7.0 | 0.00 | 0.00 | 0.00 | 17 | 1024.4 |
| 20260509221301 | 77 | 219 | 3.0 | 11.0 | 0.00 | 0.00 | 0.00 | 15 | 1024.7 |
| 20260509220255 | 78 | 283 | 2.0 | 8.0 | 0.00 | 0.00 | 0.00 | 15 | 1024.9 |
| 20260509215206 | 76 | 276 | 3.0 | 14.0 | 0.00 | 0.00 | 0.00 | 15 | 1024.9 |
| 20260509214223 | 77 | 317 | 4.0 | 8.0 | 0.00 | 0.00 | 0.00 | 17 | 1025.2 |
| 20260509213237 | 77 | 302 | 7.0 | 16.0 | 0.00 | 0.00 | 0.00 | 17 | 1025.4 |
| 20260509212252 | 76 | 74 | 3.0 | 8.0 | 0.00 | 0.00 | 0.00 | 17 | 1025.5 |
| 20260509211204 | 77 | 322 | 3.0 | 9.0 | 0.00 | 0.00 | 0.00 | 17 | 1025.6 |
| 20260509210220 | 77 | 230 | 4.0 | 10.0 | 0.00 | 0.00 | 0.00 | 15 | 1025.7 |
| 20260509205234 | 76 | 250 | 5.0 | 10.0 | 0.00 | 0.00 | 0.00 | 16 | 1026.1 |
| 20260509204309 | 76 | 309 | 6.0 | 11.0 | 0.00 | 0.00 | 0.00 | 17 | 1026.1 |
| 20260509203201 | 76 | 205 | 4.0 | 10.0 | 0.00 | 0.00 | 0.00 | 15 | 1026.2 |
| 20260509202112 | 76 | 194 | 5.0 | 23.0 | 0.00 | 0.00 | 0.00 | 15 | 1026.2 |
| 20260509201128 | 77 | 292 | 4.0 | 8.0 | 0.00 | 0.00 | 0.00 | 16 | 1026.4 |
| 20260509200205 | 76 | 336 | 5.0 | 11.0 | 0.00 | 0.00 | 0.00 | 17 | 1026.4 |
| 20260509195220 | 77 | 345 | 7.0 | 15.0 | 0.00 | 0.00 | 0.00 | 17 | 1026.4 |
| 20260509194110 | 76 | 0 | 4.0 | 10.0 | 0.00 | 0.00 | 0.00 | 16 | 1026.6 |
| 20260509193145 | 77 | 342 | 5.0 | 15.0 | 0.00 | 0.00 | 0.00 | 18 | 1026.6 |
| 20260509192141 | 77 | 288 | 4.0 | 13.0 | 0.00 | 0.00 | 0.00 | 16 | 1026.7 |
| 20260509191156 | 76 | 338 | 6.0 | 11.0 | 0.00 | 0.00 | 0.00 | 17 | 1026.5 |
| 20260509190106 | 76 | 308 | 4.0 | 9.0 | 0.00 | 0.00 | 0.00 | 17 | 1026.7 |
| 20260509185121 | 77 | 312 | 3.0 | 9.0 | 0.00 | 0.00 | 0.00 | 16 | 1026.9 |
| 20260509184137 | 76 | 345 | 5.0 | 10.0 | 0.00 | 0.00 | 0.00 | 20 | 1026.8 |
| 20260509183152 | 74 | 327 | 6.0 | 15.0 | 0.00 | 0.00 | 0.00 | 19 | 1026.9 |
| 20260509182207 | 75 | 329 | 6.0 | 13.0 | 0.00 | 0.00 | 0.00 | 20 | 1027.0 |
| 20260509181139 | 74 | 352 | 5.0 | 16.0 | 0.00 | 0.00 | 0.00 | 19 | 1027.2 |
| 20260509180134 | 76 | 341 | 3.0 | 14.0 | 0.00 | 0.00 | 0.00 | 18 | 1027.2 |